createdAt,value
2022-11-10T00:01:12.959Z,7.53
2022-11-10T00:04:03.396Z,7.53
2022-11-10T00:06:54.681Z,7.51
2022-11-10T00:09:45.199Z,7.49
2022-11-10T00:12:36.035Z,7.45
2022-11-10T00:15:44.283Z,7.42
2022-11-10T00:18:38.275Z,7.39
2022-11-10T00:21:30.035Z,7.36
2022-11-10T00:24:20.565Z,7.34
2022-11-10T00:27:11.838Z,7.31
2022-11-10T00:30:02.861Z,7.31
2022-11-10T00:32:53.696Z,7.32
2022-11-10T00:35:43.855Z,7.34
2022-11-10T00:38:35.451Z,7.34
2022-11-10T00:41:27.856Z,7.31
2022-11-10T00:44:18.625Z,7.27
2022-11-10T00:47:09.701Z,7.28
2022-11-10T00:50:00.025Z,7.26
2022-11-10T00:52:51.334Z,7.26
2022-11-10T00:55:42.367Z,7.30
2022-11-10T00:58:33.087Z,7.30
2022-11-10T01:01:25.165Z,7.31
2022-11-10T01:04:16.038Z,7.28
2022-11-10T01:07:07.102Z,7.24
2022-11-10T01:09:58.973Z,7.21
2022-11-10T01:12:50.318Z,7.18
2022-11-10T01:15:42.978Z,7.10
2022-11-10T01:18:35.300Z,7.08
2022-11-10T01:21:26.120Z,7.04
2022-11-10T01:24:21.876Z,7.03
2022-11-10T01:27:11.436Z,7.00
2022-11-10T01:30:02.193Z,6.99
2022-11-10T01:32:53.992Z,6.99
2022-11-10T01:35:44.596Z,7.05
2022-11-10T01:38:37.720Z,7.10
2022-11-10T01:41:28.419Z,7.14
2022-11-10T01:44:24.624Z,7.20
2022-11-10T01:47:15.017Z,7.21
2022-11-10T01:50:06.522Z,7.28
2022-11-10T01:53:01.041Z,7.31
2022-11-10T01:55:51.604Z,7.32
2022-11-10T01:58:48.335Z,7.37
2022-11-10T02:01:38.728Z,7.36
2022-11-10T02:04:29.636Z,7.35
2022-11-10T02:07:21.055Z,7.37
2022-11-10T02:10:19.375Z,7.37
2022-11-10T02:13:10.184Z,7.36
2022-11-10T02:16:00.206Z,7.35
2022-11-10T02:18:51.359Z,7.32
2022-11-10T02:21:42.343Z,7.32
2022-11-10T02:24:32.928Z,7.31
2022-11-10T02:27:24.552Z,7.33
2022-11-10T02:30:15.900Z,7.30
2022-11-10T02:33:06.126Z,7.29
2022-11-10T02:35:57.545Z,7.29
2022-11-10T02:38:48.134Z,7.28
2022-11-10T02:41:40.684Z,7.28
2022-11-10T02:44:32.275Z,7.26
2022-11-10T02:47:23.837Z,7.25
2022-11-10T02:50:14.594Z,7.25
2022-11-10T02:53:06.077Z,7.23
2022-11-10T02:55:57.676Z,7.21
2022-11-10T02:58:48.043Z,7.20
2022-11-10T03:01:38.558Z,7.15
2022-11-10T03:04:28.911Z,7.13
2022-11-10T03:07:19.816Z,7.10
2022-11-10T03:10:10.870Z,7.13
2022-11-10T03:13:02.708Z,7.20
2022-11-10T03:15:53.794Z,7.27
2022-11-10T03:18:44.689Z,7.34
2022-11-10T03:21:35.006Z,7.40
2022-11-10T03:24:26.002Z,7.45
2022-11-10T03:27:16.540Z,7.48
2022-11-10T03:30:08.475Z,7.50
2022-11-10T03:32:59.519Z,7.57
2022-11-10T03:35:50.966Z,7.62
2022-11-10T03:38:41.626Z,7.66
2022-11-10T03:41:32.896Z,7.69
2022-11-10T03:44:23.542Z,7.66
2022-11-10T03:47:13.676Z,7.66
2022-11-10T03:50:04.216Z,7.71
2022-11-10T03:52:54.359Z,7.71
2022-11-10T03:55:45.069Z,7.75
2022-11-10T03:58:37.014Z,7.78
2022-11-10T04:01:28.795Z,7.80
2022-11-10T04:04:38.938Z,7.82
2022-11-10T04:07:48.468Z,7.83
2022-11-10T04:10:38.885Z,7.87
2022-11-10T04:13:46.536Z,7.88
2022-11-10T04:16:36.850Z,7.89
2022-11-10T04:19:29.116Z,7.92
2022-11-10T04:22:21.278Z,7.95
2022-11-10T04:25:11.533Z,8.00
2022-11-10T04:28:02.333Z,8.02
2022-11-10T04:30:53.375Z,8.06
2022-11-10T04:33:43.809Z,8.09
2022-11-10T04:36:35.731Z,8.10
2022-11-10T04:39:27.602Z,8.11
2022-11-10T04:42:17.878Z,8.10
2022-11-10T04:45:11.255Z,8.14
2022-11-10T04:48:01.551Z,8.18
2022-11-10T04:50:52.011Z,8.18
2022-11-10T04:53:43.501Z,8.19
2022-11-10T04:56:35.012Z,8.16
2022-11-10T04:59:25.966Z,8.18
2022-11-10T05:02:16.957Z,8.21
2022-11-10T05:05:10.077Z,8.27
2022-11-10T05:08:01.202Z,8.30
2022-11-10T05:10:53.554Z,8.34
2022-11-10T05:13:44.801Z,8.33
2022-11-10T05:16:35.973Z,8.33
2022-11-10T05:19:26.302Z,8.30
2022-11-10T05:22:17.353Z,8.28
2022-11-10T05:25:09.631Z,8.29
2022-11-10T05:28:00.765Z,8.32
2022-11-10T05:30:51.210Z,8.33
2022-11-10T05:33:41.945Z,8.37
2022-11-10T05:36:32.261Z,8.35
2022-11-10T05:39:22.732Z,8.34
2022-11-10T05:42:13.331Z,8.36
2022-11-10T05:45:03.858Z,8.35
2022-11-10T05:47:54.678Z,8.38
2022-11-10T05:50:46.497Z,8.39
2022-11-10T05:53:37.459Z,8.39
2022-11-10T05:56:27.962Z,8.38
2022-11-10T05:59:20.668Z,8.34
2022-11-10T06:02:11.537Z,8.39
2022-11-10T06:05:02.465Z,8.50
2022-11-10T06:07:53.170Z,8.61
2022-11-10T06:10:44.909Z,8.69
2022-11-10T06:13:36.984Z,8.82
2022-11-10T06:16:29.373Z,8.95
2022-11-10T06:19:20.020Z,9.01
2022-11-10T06:22:10.990Z,8.95
2022-11-10T06:25:01.025Z,8.84
2022-11-10T06:27:51.747Z,8.71
2022-11-10T06:30:42.696Z,8.62
2022-11-10T06:33:33.488Z,8.56
2022-11-10T06:36:24.641Z,8.53
2022-11-10T06:39:15.024Z,8.49
2022-11-10T06:42:06.093Z,8.48
2022-11-10T06:44:57.053Z,8.48
2022-11-10T06:47:47.183Z,8.48
2022-11-10T06:50:38.053Z,8.51
2022-11-10T06:53:29.813Z,8.54
2022-11-10T06:56:21.136Z,8.57
2022-11-10T06:59:12.556Z,8.58
2022-11-10T07:02:03.910Z,8.57
2022-11-10T10:10:18.377Z,9.81
2022-11-10T10:13:47.479Z,9.78
2022-11-10T10:17:02.389Z,9.81
2022-11-10T10:20:16.611Z,9.84
2022-11-10T10:23:47.211Z,9.89
2022-11-10T10:26:33.800Z,9.88
2022-11-10T10:29:37.030Z,9.91
2022-11-10T10:32:24.941Z,9.93
2022-11-10T10:35:16.984Z,9.91
2022-11-10T10:38:09.332Z,9.93
2022-11-10T10:41:05.923Z,9.93
2022-11-10T10:43:59.002Z,9.87
2022-11-10T10:46:56.194Z,9.89
2022-11-10T10:49:46.708Z,9.89
2022-11-10T10:52:38.714Z,9.90
2022-11-10T10:55:30.786Z,9.92
2022-11-10T10:58:30.542Z,9.93
2022-11-10T11:01:33.965Z,9.95
2022-11-10T11:04:36.895Z,9.92
2022-11-10T11:07:27.378Z,9.96
2022-11-10T11:10:24.724Z,9.96
2022-11-10T11:13:30.271Z,9.97
2022-11-10T11:16:21.147Z,9.95
2022-11-10T11:19:12.907Z,9.90
2022-11-10T11:22:29.582Z,9.88
2022-11-10T11:25:41.084Z,9.85
2022-11-10T11:28:52.419Z,9.86
2022-11-10T11:31:52.708Z,9.90
2022-11-10T11:35:02.577Z,9.93
2022-11-10T11:38:06.768Z,9.97
2022-11-10T11:41:26.035Z,10.00
2022-11-10T11:44:47.761Z,9.98
2022-11-10T11:48:16.208Z,9.97
2022-11-10T11:51:29.278Z,9.98
2022-11-10T11:54:26.913Z,9.94
2022-11-10T11:57:42.264Z,9.90
2022-11-10T12:00:39.051Z,9.86
2022-11-10T12:03:37.258Z,9.82
2022-11-10T12:06:44.655Z,9.76
2022-11-10T12:09:54.254Z,9.74
2022-11-10T12:13:08.880Z,9.77
2022-11-10T12:16:03.662Z,9.79
2022-11-10T12:19:32.893Z,9.76
2022-11-10T12:22:37.196Z,9.68
2022-11-10T12:25:56.905Z,9.64
2022-11-10T12:28:52.560Z,9.66
2022-11-10T12:31:42.039Z,9.67
2022-11-10T12:34:44.067Z,9.65
2022-11-10T12:37:46.024Z,9.63
2022-11-10T12:40:42.148Z,9.67
2022-11-10T12:43:37.373Z,9.67
2022-11-10T12:46:28.844Z,9.68
2022-11-10T12:49:28.939Z,9.72
2022-11-10T12:52:29.602Z,9.77
2022-11-10T12:55:21.421Z,9.73
2022-11-10T12:58:15.069Z,9.67
2022-11-10T13:01:19.926Z,9.61
2022-11-10T13:04:12.971Z,9.59
2022-11-10T13:07:10.336Z,9.57
2022-11-10T13:09:59.897Z,9.57
2022-11-10T13:13:10.351Z,9.56
2022-11-10T13:16:01.346Z,9.55
2022-11-10T13:18:54.795Z,9.53
2022-11-10T13:22:04.690Z,9.53
2022-11-10T13:24:57.310Z,9.54
2022-11-10T13:27:53.774Z,9.56
2022-11-10T13:30:48.872Z,9.59
2022-11-10T13:33:40.526Z,9.60
2022-11-10T13:36:48.905Z,9.63
2022-11-10T13:39:41.372Z,9.65
2022-11-10T13:42:32.122Z,9.62
2022-11-10T13:45:40.048Z,9.63
2022-11-10T13:48:40.863Z,9.65
2022-11-10T13:52:07.316Z,9.68
2022-11-10T13:55:27.629Z,9.70
2022-11-10T13:58:33.211Z,9.70
2022-11-10T14:01:26.944Z,9.69
2022-11-10T19:11:59.540Z,10.26
2022-11-10T19:14:49.940Z,10.20
2022-11-10T19:17:40.452Z,10.16
2022-11-10T19:20:31.494Z,10.17
2022-11-10T19:23:22.636Z,10.14
2022-11-10T19:26:22.914Z,10.13
2022-11-10T19:29:11.814Z,10.09
2022-11-10T19:32:11.339Z,10.05
2022-11-10T19:35:04.518Z,10.04
2022-11-10T19:37:56.616Z,10.04
2022-11-10T19:40:47.449Z,10.06
2022-11-10T19:43:39.407Z,10.15
2022-11-10T19:46:33.454Z,10.18
2022-11-10T19:49:24.731Z,10.24
2022-11-10T19:52:15.687Z,10.28
2022-11-10T19:55:07.819Z,10.33
2022-11-10T19:57:58.354Z,10.35
2022-11-10T20:00:49.799Z,10.40
2022-11-10T20:03:40.637Z,10.42
2022-11-10T20:06:33.384Z,10.43
2022-11-10T20:09:25.775Z,10.45
2022-11-10T20:12:17.182Z,10.47
2022-11-10T20:15:15.199Z,10.48
2022-11-10T20:18:05.487Z,10.53
2022-11-10T20:20:55.837Z,10.58
2022-11-10T20:23:46.613Z,10.59
2022-11-10T20:26:42.212Z,10.56
2022-11-10T20:29:33.076Z,10.58
2022-11-10T20:32:25.583Z,10.58
2022-11-10T20:35:16.432Z,10.60
2022-11-10T20:38:18.229Z,10.60
2022-11-10T20:41:18.003Z,10.61
2022-11-10T20:44:08.909Z,10.58
2022-11-10T20:46:59.385Z,10.57
2022-11-10T20:49:50.532Z,10.53
2022-11-10T20:52:43.400Z,10.53
2022-11-10T20:55:53.015Z,10.53
2022-11-10T20:58:35.668Z,10.51
2022-11-10T21:01:26.216Z,10.45
2022-11-10T21:04:16.756Z,10.44
2022-11-10T21:07:06.987Z,10.46
2022-11-10T21:09:58.683Z,10.45
2022-11-10T21:12:52.562Z,10.47
2022-11-10T21:15:42.752Z,10.47
2022-11-10T21:21:26.552Z,10.47
2022-11-10T21:24:18.391Z,10.40
2022-11-10T21:27:12.503Z,10.37
2022-11-10T21:30:03.099Z,10.35
2022-11-10T21:32:56.022Z,10.31
2022-11-10T21:35:47.335Z,10.28
2022-11-10T21:38:38.885Z,10.24
2022-11-10T21:41:29.238Z,10.22
2022-11-10T21:44:19.555Z,10.22
2022-11-10T21:47:10.593Z,10.20
2022-11-10T21:50:01.357Z,10.17
2022-11-10T21:52:52.613Z,10.19
2022-11-10T21:55:42.737Z,10.17
2022-11-10T21:58:37.891Z,10.17
2022-11-10T22:01:28.109Z,10.17
2022-11-10T22:04:18.931Z,10.13
2022-11-10T22:07:25.158Z,10.11
2022-11-10T22:10:32.615Z,10.09
2022-11-10T22:13:40.936Z,10.09
2022-11-10T22:16:55.858Z,10.06
2022-11-10T22:19:46.479Z,10.09
2022-11-10T22:22:37.332Z,10.06
2022-11-10T22:25:29.528Z,10.08
2022-11-10T22:28:21.717Z,10.10
2022-11-10T22:31:34.022Z,10.11
2022-11-10T22:34:25.715Z,10.10
2022-11-10T22:37:16.489Z,10.13
2022-11-10T22:40:28.103Z,10.16
2022-11-10T22:43:36.410Z,10.16
2022-11-10T22:46:26.908Z,10.14
2022-11-10T22:49:18.431Z,10.13
2022-11-10T22:52:09.815Z,10.12
2022-11-10T22:55:00.213Z,10.13
2022-11-10T22:57:53.561Z,10.13
2022-11-10T23:00:44.459Z,10.15
2022-11-10T23:03:35.507Z,10.16
2022-11-10T23:06:26.850Z,10.17
2022-11-10T23:09:17.843Z,10.16
2022-11-10T23:12:09.430Z,10.17
2022-11-10T23:15:00.140Z,10.15
2022-11-10T23:17:51.230Z,10.16
2022-11-10T23:20:42.715Z,10.19
2022-11-10T23:23:36.947Z,10.19
2022-11-10T23:26:34.162Z,10.19
2022-11-10T23:29:24.693Z,10.20
2022-11-10T23:32:17.002Z,10.19
2022-11-10T23:35:08.932Z,10.16
2022-11-10T23:38:01.234Z,10.13
2022-11-10T23:40:57.894Z,10.09
2022-11-10T23:43:49.094Z,10.07
2022-11-10T23:46:41.532Z,10.03
2022-11-10T23:49:32.392Z,9.99
2022-11-10T23:52:22.719Z,9.98
2022-11-10T23:55:13.512Z,9.97
2022-11-10T23:58:05.767Z,9.97
